Time;durP1;ratioP1;P1;durP2;ratioP2;P2;SDS_P1;SDS_P2;PMS_P1;PMS_P2;Temp;Humidity;BMP_temperature;BMP_pressure;BME280_temperature;BME280_humidity;BME280_pressure;Samples;Min_cycle;Max_cycle;Signal;HPM_P1;HPM_P2
2021/11/19 00:01:43;;;;;;;8.73;6.80;;;;;;;;;;4339179;32;20513;-78
2021/11/19 00:04:10;;;;;;;9.40;6.87;;;;;;;;;;4351300;32;20159;-80
2021/11/19 00:06:36;;;;;;;9.43;7.18;;;;;;;;;;4351420;32;20094;-77
2021/11/19 00:09:04;;;;;;;10.18;6.80;;;;;;;;;;4348167;32;20162;-78
2021/11/19 00:11:34;;;;;;;10.95;7.78;;;;;;;;;;4361883;32;20545;-81
2021/11/19 00:14:01;;;;;;;8.40;6.78;;;;;;;;;;4362855;32;20098;-80
2021/11/19 00:16:28;;;;;;;8.63;6.97;;;;;;;;;;4363509;32;20081;-77
2021/11/19 00:18:55;;;;;;;9.93;6.70;;;;;;;;;;4349593;32;20070;-76
2021/11/19 00:21:23;;;;;;;8.80;6.72;;;;;;;;;;4361189;32;20081;-78
2021/11/19 00:23:50;;;;;;;8.88;6.65;;;;;;;;;;4360850;32;20074;-78
2021/11/19 00:26:17;;;;;;;8.02;5.97;;;;;;;;;;4347682;32;20525;-78
2021/11/19 00:28:44;;;;;;;9.40;6.68;;;;;;;;;;4360300;32;20148;-79
2021/11/19 00:31:11;;;;;;;10.35;7.28;;;;;;;;;;4362290;32;20055;-77
2021/11/19 00:33:38;;;;;;;9.75;7.15;;;;;;;;;;4360388;32;20097;-78
2021/11/19 00:36:08;;;;;;;9.70;6.70;;;;;;;;;;4360599;32;20083;-79
2021/11/19 00:38:36;;;;;;;9.15;7.15;;;;;;;;;;4349029;32;20457;-78
2021/11/19 00:41:05;;;;;;;9.32;6.70;;;;;;;;;;4362671;32;20163;-79
2021/11/19 00:43:31;;;;;;;10.52;7.18;;;;;;;;;;4348403;32;20090;-80
2021/11/19 00:45:58;;;;;;;8.95;6.65;;;;;;;;;;4360197;32;20078;-79
2021/11/19 00:48:25;;;;;;;10.25;7.50;;;;;;;;;;4360620;32;20086;-79
2021/11/19 00:50:56;;;;;;;9.70;7.45;;;;;;;;;;4361108;32;20054;-79
2021/11/19 00:53:23;;;;;;;9.88;7.25;;;;;;;;;;4361608;32;20090;-77
2021/11/19 00:55:50;;;;;;;9.68;7.43;;;;;;;;;;4362885;32;20077;-80
2021/11/19 00:58:17;;;;;;;9.13;7.20;;;;;;;;;;4354406;32;20091;-79
2021/11/19 01:00:47;;;;;;;9.75;6.47;;;;;;;;;;4364420;32;20085;-79
2021/11/19 01:03:14;;;;;;;10.63;8.00;;;;;;;;;;4366333;32;20088;-79
2021/11/19 01:05:40;;;;;;;10.10;6.75;;;;;;;;;;4361038;32;20070;-79
2021/11/19 01:08:07;;;;;;;10.98;7.78;;;;;;;;;;4361570;32;20085;-80
2021/11/19 01:10:36;;;;;;;10.75;7.00;;;;;;;;;;4359510;32;20153;-78
2021/11/19 01:13:02;;;;;;;11.40;7.05;;;;;;;;;;4360944;32;20085;-81
2021/11/19 01:15:34;;;;;;;11.10;8.30;;;;;;;;;;4336225;32;20077;-79
2021/11/19 01:18:09;;;;;;;9.60;7.80;;;;;;;;;;4348219;32;20094;-77
2021/11/19 01:20:52;;;;;;;9.60;7.47;;;;;;;;;;4360086;32;20076;-78
2021/11/19 01:23:21;;;;;;;9.25;6.85;;;;;;;;;;4360009;32;20090;-78
2021/11/19 01:25:50;;;;;;;8.70;6.85;;;;;;;;;;4347958;32;20096;-77
2021/11/19 01:28:17;;;;;;;8.98;6.82;;;;;;;;;;4335526;32;20094;-77
2021/11/19 01:30:46;;;;;;;9.27;7.25;;;;;;;;;;4348976;32;20082;-79
2021/11/19 01:33:13;;;;;;;9.13;6.85;;;;;;;;;;4348902;32;20512;-77
2021/11/19 01:35:40;;;;;;;9.52;7.22;;;;;;;;;;4335898;32;20097;-79
2021/11/19 01:38:07;;;;;;;9.20;6.65;;;;;;;;;;4361292;32;20082;-78
2021/11/19 01:40:36;;;;;;;9.45;7.75;;;;;;;;;;4348391;32;20163;-78
2021/11/19 01:43:06;;;;;;;10.85;7.57;;;;;;;;;;4348054;32;20091;-79
2021/11/19 01:45:36;;;;;;;10.60;6.85;;;;;;;;;;4348062;32;20167;-79
2021/11/19 01:48:04;;;;;;;9.13;6.28;;;;;;;;;;4348008;32;20175;-77
2021/11/19 01:50:34;;;;;;;9.93;7.32;;;;;;;;;;4348187;32;20073;-79
2021/11/19 01:53:17;;;;;;;8.10;6.25;;;;;;;;;;4348133;32;20081;-78
2021/11/19 01:55:55;;;;;;;9.85;6.28;;;;;;;;;;4349210;32;20089;-78
2021/11/19 01:58:43;;;;;;;8.60;6.18;;;;;;;;;;4348166;32;20074;-79
2021/11/19 02:01:19;;;;;;;9.40;6.85;;;;;;;;;;4359724;32;20066;-78
2021/11/19 02:03:51;;;;;;;9.60;7.10;;;;;;;;;;4348790;32;20163;-78
2021/11/19 02:06:21;;;;;;;12.00;7.97;;;;;;;;;;4347936;32;20174;-79
2021/11/19 02:08:48;;;;;;;9.13;6.72;;;;;;;;;;4362225;32;20074;-77
2021/11/19 02:11:17;;;;;;;11.77;6.97;;;;;;;;;;4350551;32;20077;-78
2021/11/19 02:14:02;;;;;;;8.70;6.80;;;;;;;;;;4374318;32;20066;-80
2021/11/19 02:16:46;;;;;;;9.40;6.30;;;;;;;;;;4382549;32;20175;-79
2021/11/19 02:19:29;;;;;;;9.63;6.47;;;;;;;;;;4354304;32;20545;-78
2021/11/19 02:22:01;;;;;;;11.60;6.80;;;;;;;;;;4352887;32;20077;-80
2021/11/19 02:24:36;;;;;;;9.82;6.82;;;;;;;;;;4353386;32;20477;-79
2021/11/19 02:27:24;;;;;;;10.95;6.53;;;;;;;;;;4364444;32;20162;-78
2021/11/19 02:29:55;;;;;;;10.07;6.68;;;;;;;;;;4352093;32;20459;-76
2021/11/19 02:32:29;;;;;;;10.02;7.00;;;;;;;;;;4352841;32;20081;-77
2021/11/19 02:34:56;;;;;;;10.45;6.78;;;;;;;;;;4353545;32;20133;-78
2021/11/19 02:37:35;;;;;;;12.50;6.87;;;;;;;;;;4352693;32;20154;-77
2021/11/19 02:40:07;;;;;;;9.27;6.68;;;;;;;;;;4353152;32;20169;-77
2021/11/19 02:42:38;;;;;;;10.68;7.70;;;;;;;;;;4352656;32;20094;-79
2021/11/19 02:45:14;;;;;;;12.32;7.85;;;;;;;;;;4340686;32;20151;-77
2021/11/19 02:47:41;;;;;;;;;;;;;;;;;;4365148;32;20079;-79
2021/11/19 02:50:07;;;;;;;;;;;;;;;;;;4364916;32;19961;-78
2021/11/19 02:52:35;;;;;;;;;;;;;;;;;;4377793;32;19969;-79
2021/11/19 02:55:02;;;;;;;;;;;;;;;;;;4378001;32;19969;-77
2021/11/19 02:57:29;;;;;;;;;;;;;;;;;;4352877;32;20037;-78
2021/11/19 02:59:55;;;;;;;;;;;;;;;;;;4377487;32;19989;-77
2021/11/19 03:02:23;;;;;;;;;;;;;;;;;;4364848;32;19976;-77
2021/11/19 03:04:51;;;;;;;;;;;;;;;;;;4364871;32;19977;-78
2021/11/19 03:07:17;;;;;;;;;;;;;;;;;;4364854;32;20446;-78
2021/11/19 03:09:47;;;;;;;;;;;;;;;;;;4364328;32;19976;-78
2021/11/19 03:12:14;;;;;;;;;;;;;;;;;;4364730;32;20635;-77
2021/11/19 03:14:41;;;;;;;;;;;;;;;;;;4377610;32;20039;-77
2021/11/19 03:17:08;;;;;;;;;;;;;;;;;;4376948;32;20348;-80
2021/11/19 03:19:34;;;;;;;;;;;;;;;;;;4365380;32;20128;-79
2021/11/19 03:22:00;;;;;;;;;;;;;;;;;;4377171;32;19961;-79
2021/11/19 03:24:27;;;;;;;;;;;;;;;;;;4351817;32;19976;-77
2021/11/19 03:26:53;;;;;;;;;;;;;;;;;;4376917;32;19981;-80
2021/11/19 03:29:20;;;;;;;;;;;;;;;;;;4364537;32;19980;-78
2021/11/19 03:31:47;;;;;;;;;;;;;;;;;;4377232;32;19976;-79
2021/11/19 03:34:13;;;;;;;;;;;;;;;;;;4364854;32;19958;-79
2021/11/19 03:36:45;;;;;;;;;;;;;;;;;;4376548;32;20046;-79
2021/11/19 03:39:11;;;;;;;;;;;;;;;;;;4363844;32;20046;-79
2021/11/19 03:41:38;;;;;;;;;;;;;;;;;;4364919;32;19968;-80
2021/11/19 03:44:04;;;;;;;;;;;;;;;;;;4377241;32;20045;-77
2021/11/19 03:46:36;;;;;;;;;;;;;;;;;;4364139;32;19985;-79
2021/11/19 03:49:02;;;;;;;;;;;;;;;;;;4363986;32;19973;-79
2021/11/19 03:51:48;;;;;;;;;;;;;;;;;;4380127;32;19966;-79
2021/11/19 03:54:16;;;;;;;;;;;;;;;;;;4352524;32;19965;-79
2021/11/19 03:56:42;;;;;;;;;;;;;;;;;;4364012;32;20356;-79
2021/11/19 03:59:09;;;;;;;;;;;;;;;;;;4376720;32;19989;-79
2021/11/19 04:01:40;;;;;;;;;;;;;;;;;;4364224;32;19973;-78
2021/11/19 04:04:06;;;;;;;;;;;;;;;;;;4363515;32;20509;-79
2021/11/19 04:06:33;;;;;;;;;;;;;;;;;;4376523;32;19965;-78
2021/11/19 04:08:59;;;;;;;;;;;;;;;;;;4363945;32;20046;-80
2021/11/19 04:11:26;;;;;;;;;;;;;;;;;;4364248;32;19981;-79
2021/11/19 04:13:52;;;;;;;;;;;;;;;;;;4377874;32;19961;-80
2021/11/19 04:16:20;;;;;;;;;;;;;;;;;;4377818;32;20164;-78
2021/11/19 04:18:46;;;;;;;;;;;;;;;;;;4364201;32;20372;-79
2021/11/19 04:21:13;;;;;;;;;;;;;;;;;;4363562;32;19976;-78
2021/11/19 04:23:39;;;;;;;;;;;;;;;;;;4376019;32;20387;-79
2021/11/19 04:26:06;;;;;;;;;;;;;;;;;;4375829;32;19965;-78
2021/11/19 04:28:32;;;;;;;;;;;;;;;;;;4375999;32;20057;-77
2021/11/19 04:30:59;;;;;;;;;;;;;;;;;;4377076;32;19972;-77
2021/11/19 04:33:25;;;;;;;;;;;;;;;;;;4363729;32;19968;-79
2021/11/19 04:35:52;;;;;;;;;;;;;;;;;;4363332;32;19977;-78
2021/11/19 04:38:19;;;;;;;;;;;;;;;;;;4350727;32;20026;-78
2021/11/19 04:40:46;;;;;;;;;;;;;;;;;;4377468;32;19972;-80
2021/11/19 04:43:12;;;;;;;;;;;;;;;;;;4376561;32;20343;-79
2021/11/19 04:45:39;;;;;;;;;;;;;;;;;;4376723;32;20439;-78
2021/11/19 04:49:07;;;;;;;;;;;;;;;;;;3835163;37;19989;-79
2021/11/19 04:51:35;;;;;;;;;;;;;;;;;;4404567;32;19977;-81
2021/11/19 04:54:02;;;;;;;;;;;;;;;;;;4403733;32;20332;-80
2021/11/19 04:56:28;;;;;;;;;;;;;;;;;;4391370;32;20041;-80
2021/11/19 04:58:55;;;;;;;;;;;;;;;;;;4390940;32;19970;-78
2021/11/19 05:01:23;;;;;;;;;;;;;;;;;;4403655;32;19973;-76
2021/11/19 05:03:50;;;;;;;;;;;;;;;;;;4391006;32;19993;-80
2021/11/19 05:06:16;;;;;;;;;;;;;;;;;;4403542;32;20078;-80
2021/11/19 05:08:43;;;;;;;;;;;;;;;;;;4403017;32;20076;-80
2021/11/19 05:11:12;;;;;;;;;;;;;;;;;;4390503;32;20437;-79
2021/11/19 05:13:38;;;;;;;;;;;;;;;;;;4403563;32;19970;-79
2021/11/19 05:16:05;;;;;;;;;;;;;;;;;;4390835;32;20042;-79
2021/11/19 05:18:32;;;;;;;;;;;;;;;;;;4402837;32;20183;-80
2021/11/19 05:20:58;;;;;;;;;;;;;;;;;;4390237;32;20436;-78
2021/11/19 05:23:27;;;;;;;;;;;;;;;;;;4405280;32;20453;-80
2021/11/19 05:25:53;;;;;;;;;;;;;;;;;;4405238;32;19984;-81
2021/11/19 05:28:20;;;;;;;;;;;;;;;;;;4411068;32;19988;-78
2021/11/19 05:30:47;;;;;;;;;;;;;;;;;;4391098;32;20045;-78
2021/11/19 05:33:15;;;;;;;;;;;;;;;;;;4390917;32;19999;-77
2021/11/19 05:35:41;;;;;;;;;;;;;;;;;;4402944;32;20404;-77
2021/11/19 05:38:08;;;;;;;;;;;;;;;;;;4403101;32;19985;-79
2021/11/19 05:40:34;;;;;;;;;;;;;;;;;;4403233;32;19997;-78
2021/11/19 05:43:00;;;;;;;;;;;;;;;;;;4404577;32;19978;-79
2021/11/19 05:45:27;;;;;;;;;;;;;;;;;;4403014;32;19970;-79
2021/11/19 05:47:53;;;;;;;;;;;;;;;;;;4390073;32;19997;-79
2021/11/19 05:50:20;;;;;;;;;;;;;;;;;;4390496;32;20080;-79
2021/11/19 05:52:47;;;;;;;;;;;;;;;;;;4403363;32;19974;-77
2021/11/19 05:55:15;;;;;;;;;;;;;;;;;;4403011;32;20036;-80
2021/11/19 05:57:41;;;;;;;;;;;;;;;;;;4403090;32;20031;-78
2021/11/19 06:00:10;;;;;;;;;;;;;;;;;;4381921;32;19977;-78
2021/11/19 06:02:36;;;;;;;;;;;;;;;;;;4392719;32;20395;-78
2021/11/19 06:05:03;;;;;;;;;;;;;;;;;;4394013;32;19978;-79
2021/11/19 06:07:29;;;;;;;;;;;;;;;;;;4380359;32;20052;-80
2021/11/19 06:09:55;;;;;;;;;;;;;;;;;;4393394;32;19984;-81
2021/11/19 06:12:23;;;;;;;;;;;;;;;;;;4392411;32;20391;-79
2021/11/19 06:14:51;;;;;;;;;;;;;;;;;;4367294;32;19970;-80
2021/11/19 06:17:22;;;;;;;;;;;;;;;;;;4367584;32;19988;-77
2021/11/19 06:19:50;;;;;;;;;;;;;;;;;;4380389;32;19997;-78
2021/11/19 06:22:19;;;;;;;;;;;;;;;;;;4392407;32;20008;-78
2021/11/19 06:24:46;;;;;;;;;;;;;;;;;;4379542;32;19989;-80
2021/11/19 06:27:13;;;;;;;;;;;;;;;;;;4379888;32;20047;-77
2021/11/19 06:29:39;;;;;;;;;;;;;;;;;;4392140;32;20069;-79
2021/11/19 06:32:06;;;;;;;;;;;;;;;;;;4392250;32;19978;-78
2021/11/19 06:34:32;;;;;;;;;;;;;;;;;;4393289;32;20432;-78
2021/11/19 06:36:58;;;;;;;;;;;;;;;;;;4392264;32;20387;-76
2021/11/19 06:39:25;;;;;;;;;;;;;;;;;;4391900;32;19972;-78
2021/11/19 06:41:51;;;;;;;;;;;;;;;;;;4392069;32;20000;-80
2021/11/19 06:44:17;;;;;;;;;;;;;;;;;;4367340;32;19977;-79
2021/11/19 06:46:44;;;;;;;;;;;;;;;;;;4366982;32;19977;-79
2021/11/19 06:49:11;;;;;;;;;;;;;;;;;;4386534;32;20450;-78
2021/11/19 06:51:38;;;;;;;;;;;;;;;;;;4367895;32;20102;-72
2021/11/19 06:54:04;;;;;;;;;;;;;;;;;;4378374;32;20021;-73
2021/11/19 06:56:30;;;;;;;;;;;;;;;;;;4368441;32;19984;-74
2021/11/19 06:58:57;;;;;;;;;;;;;;;;;;4384566;32;19985;-72
2021/11/19 07:01:23;;;;;;;;;;;;;;;;;;4381212;32;20005;-71
2021/11/19 07:03:50;;;;;;;;;;;;;;;;;;4380175;32;19989;-74
2021/11/19 07:06:16;;;;;;;;;;;;;;;;;;4379853;32;19978;-73
2021/11/19 07:08:42;;;;;;;;;;;;;;;;;;4382782;32;19965;-71
2021/11/19 07:11:12;;;;;;;;;;;;;;;;;;4381823;32;20009;-69
2021/11/19 07:13:38;;;;;;;;;;;;;;;;;;4362506;32;20001;-73
2021/11/19 07:16:05;;;;;;;;;;;;;;;;;;4385657;32;20029;-72
2021/11/19 07:18:31;;;;;;;;;;;;;;;;;;4380706;32;19981;-71
2021/11/19 07:20:57;;;;;;;;;;;;;;;;;;4387729;32;19996;-72
2021/11/19 07:23:27;;;;;;;;;;;;;;;;;;4380769;32;19965;-72
2021/11/19 07:25:55;;;;;;;;;;;;;;;;;;4375888;32;20066;-72
2021/11/19 07:28:21;;;;;;;;;;;;;;;;;;4368067;32;19985;-72
2021/11/19 07:30:51;;;;;;;;;;;;;;;;;;4372111;32;20063;-74
2021/11/19 07:33:17;;;;;;;;;;;;;;;;;;4381317;32;19989;-72
2021/11/19 07:35:44;;;;;;;;;;;;;;;;;;4381795;32;20509;-72
2021/11/19 07:38:11;;;;;;;;;;;;;;;;;;4368953;32;19978;-73
2021/11/19 07:40:37;;;;;;;;;;;;;;;;;;4377900;32;19985;-72
2021/11/19 07:43:04;;;;;;;;;;;;;;;;;;4359972;32;20037;-74
2021/11/19 07:45:36;;;;;;;;;;;;;;;;;;4388072;32;19977;-72
2021/11/19 07:48:03;;;;;;;;;;;;;;;;;;4376647;32;19977;-73
2021/11/19 07:50:30;;;;;;;;;;;;;;;;;;4364615;32;20020;-72
2021/11/19 07:52:59;;;;;;;;;;;;;;;;;;4384591;32;19985;-70
2021/11/19 07:55:25;;;;;;;;;;;;;;;;;;4374113;32;20115;-70
2021/11/19 07:57:52;;;;;;;;;;;;;;;;;;4365958;32;20070;-74
2021/11/19 08:00:24;;;;;;;;;;;;;;;;;;4372271;32;19974;-70
2021/11/19 08:02:50;;;;;;;;;;;;;;;;;;4375280;32;19993;-73
2021/11/19 08:05:17;;;;;;;;;;;;;;;;;;4380095;32;19962;-71
2021/11/19 08:07:43;;;;;;;;;;;;;;;;;;4385780;32;19985;-72
2021/11/19 08:10:09;;;;;;;;;;;;;;;;;;4377027;32;20106;-71
2021/11/19 08:12:37;;;;;;;;;;;;;;;;;;4386586;32;19965;-71
2021/11/19 08:15:04;;;;;;;;;;;;;;;;;;4382961;32;20415;-75
2021/11/19 08:17:35;;;;;;;;;;;;;;;;;;4384194;32;20009;-75
2021/11/19 08:20:01;;;;;;;;;;;;;;;;;;4381066;32;19984;-75
2021/11/19 08:22:28;;;;;;;;;;;;;;;;;;4380327;32;20144;-75
2021/11/19 08:24:54;;;;;;;;;;;;;;;;;;4372310;32;20437;-78
2021/11/19 08:27:22;;;;;;;;;;;;;;;;;;4364360;32;20368;-73
2021/11/19 08:29:49;;;;;;;;;;;;;;;;;;4362750;32;20391;-72
2021/11/19 08:32:16;;;;;;;;;;;;;;;;;;4364789;32;20037;-76
2021/11/19 08:34:42;;;;;;;;;;;;;;;;;;4364962;32;20408;-79
2021/11/19 08:37:09;;;;;;;;;;;;;;;;;;4377673;32;20009;-76
2021/11/19 08:39:36;;;;;;;;;;;;;;;;;;4367234;32;20005;-75
2021/11/19 08:42:02;;;;;;;;;;;;;;;;;;4372969;32;20000;-75
2021/11/19 08:44:28;;;;;;;;;;;;;;;;;;4362158;32;20013;-78
2021/11/19 08:46:55;;;;;;;;;;;;;;;;;;4360974;32;20400;-78
2021/11/19 08:49:23;;;;;;;;;;;;;;;;;;4362013;32;19986;-75
2021/11/19 08:51:50;;;;;;;;;;;;;;;;;;4375581;32;19992;-78
2021/11/19 08:54:16;;;;;;;;;;;;;;;;;;4375280;32;19974;-77
2021/11/19 08:56:44;;;;;;;;;;;;;;;;;;4363091;32;20030;-77
2021/11/19 08:59:11;;;;;;;;;;;;;;;;;;4375300;32;19998;-79
2021/11/19 09:01:42;;;;;;;;;;;;;;;;;;4374119;32;20077;-77
2021/11/19 09:04:09;;;;;;;;;;;;;;;;;;4361631;32;20065;-77
2021/11/19 09:06:35;;;;;;;;;;;;;;;;;;4375206;32;20062;-76
2021/11/19 09:09:03;;;;;;;;;;;;;;;;;;4375202;32;20396;-80
2021/11/19 09:11:29;;;;;;;;;;;;;;;;;;4375765;32;19986;-75
2021/11/19 09:13:56;;;;;;;;;;;;;;;;;;4369421;32;19981;-73
2021/11/19 09:16:24;;;;;;;;;;;;;;;;;;4352094;32;20051;-72
2021/11/19 09:18:50;;;;;;;;;;;;;;;;;;4358715;32;20417;-77
2021/11/19 09:21:16;;;;;;;;;;;;;;;;;;4383549;32;19993;-78
2021/11/19 09:23:47;;;;;;;;;;;;;;;;;;4377250;32;20056;-77
2021/11/19 09:26:15;;;;;;;;;;;;;;;;;;4366942;32;19970;-76
2021/11/19 09:28:42;;;;;;;;;;;;;;;;;;4369357;32;20103;-75
2021/11/19 09:31:09;;;;;;;;;;;;;;;;;;4352405;32;20001;-78
2021/11/19 09:33:36;;;;;;;;;;;;;;;;;;4349957;32;19984;-71
2021/11/19 09:36:03;;;;;;;;;;;;;;;;;;4384504;32;19993;-73
2021/11/19 09:38:30;;;;;;;;;;;;;;;;;;4364865;32;20056;-70
2021/11/19 09:41:15;;;;;;;;;;;;;;;;;;4370790;32;19974;-74
2021/11/19 09:43:43;;;;;;;;;;;;;;;;;;4392462;32;19966;-73
2021/11/19 09:46:13;;;;;;;;;;;;;;;;;;4378272;32;19966;-72
2021/11/19 09:48:40;;;;;;;;;;;;;;;;;;4377318;32;20078;-74
2021/11/19 09:51:17;;;;;;;;;;;;;;;;;;4389966;32;20395;-74
2021/11/19 09:53:56;;;;;;;;;;;;;;;;;;4384088;32;19970;-75
2021/11/19 09:56:30;;;;;;;;;;;;;;;;;;4382780;32;20010;-73
2021/11/19 09:59:20;;;;;;;;;;;;;;;;;;4377132;32;20070;-73
2021/11/19 10:02:05;;;;;;;;;;;;;;;;;;4365756;32;19970;-75
2021/11/19 10:04:37;;;;;;;;;;;;;;;;;;4381647;32;19985;-78
2021/11/19 10:07:16;;;;;;;;;;;;;;;;;;4384631;32;20384;-73
2021/11/19 10:09:52;;;;;;;;;;;;;;;;;;4371577;32;19981;-73
2021/11/19 10:12:23;;;;;;;;;;;;;;;;;;4389422;32;19966;-72
2021/11/19 10:14:53;;;;;;;;;;;;;;;;;;4358934;32;19978;-72
2021/11/19 10:17:31;;;;;;;;;;;;;;;;;;4387098;32;19973;-73
2021/11/19 10:19:59;;;;;;;;;;;;;;;;;;4384462;32;19974;-72
2021/11/19 10:22:39;;;;;;;;;;;;;;;;;;4368019;32;20010;-74
2021/11/19 10:25:06;;;;;;;;;;;;;;;;;;4372560;32;20051;-73
2021/11/19 10:27:34;;;;;;;;;;;;;;;;;;4380679;32;19981;-72
2021/11/19 10:30:05;;;;;;;;;;;;;;;;;;4368190;32;20009;-72
2021/11/19 10:32:32;;;;;;;;;;;;;;;;;;4354912;32;20059;-74
2021/11/19 10:34:58;;;;;;;;;;;;;;;;;;4374573;32;19970;-77
2021/11/19 10:37:43;;;;;;;;;;;;;;;;;;4390032;32;19989;-77
2021/11/19 10:40:13;;;;;;;;;;;;;;;;;;4390038;32;19994;-77
2021/11/19 10:42:40;;;;;;;;;;;;;;;;;;4377334;32;20000;-77
2021/11/19 10:45:25;;;;;;;;;;;;;;;;;;4390997;32;20363;-76
2021/11/19 10:48:07;;;;;;;;;;;;;;;;;;4379138;32;19970;-77
2021/11/19 10:50:45;;;;;;;;;;;;;;;;;;4393355;32;20023;-78
2021/11/19 10:53:18;;;;;;;;;;;;;;;;;;4379506;32;20038;-77
2021/11/19 10:56:03;;;;;;;;;;;;;;;;;;4391745;32;20395;-79
2021/11/19 10:58:33;;;;;;;;;;;;;;;;;;4391750;32;20111;-78
2021/11/19 11:00:59;;;;;;;;;;;;;;;;;;4379407;32;19978;-78
2021/11/19 11:03:30;;;;;;;;;;;;;;;;;;4392476;32;19989;-78
2021/11/19 11:05:57;;;;;;;;;;;;;;;;;;4379467;32;20396;-77
2021/11/19 11:08:26;;;;;;;;;;;;;;;;;;4391831;32;19977;-76
2021/11/19 11:11:00;;;;;;;;;;;;;;;;;;4392120;32;20042;-77
2021/11/19 11:13:30;;;;;;;;;;;;;;;;;;4380272;32;19997;-77
2021/11/19 11:16:07;;;;;;;;;;;;;;;;;;4393123;32;20336;-77
2021/11/19 11:18:53;;;;;;;;;;;;;;;;;;4366974;32;19969;-76
2021/11/19 11:21:24;;;;;;;;;;;;;;;;;;4380049;32;20018;-77
2021/11/19 11:23:52;;;;;;;;;;;;;;;;;;4379420;32;20012;-75
2021/11/19 11:26:20;;;;;;;;;;;;;;;;;;4366787;32;19981;-78
2021/11/19 11:28:50;;;;;;;;;;;;;;;;;;4379416;32;19978;-77
2021/11/19 11:31:36;;;;;;;;;;;;;;;;;;4366962;32;19966;-78
2021/11/19 11:34:15;;;;;;;;;;;;;;;;;;4379606;32;19980;-78
2021/11/19 11:36:43;;;;;;;;;;;;;;;;;;4367602;32;19988;-78
2021/11/19 11:39:17;;;;;;;;;;;;;;;;;;4379021;32;20059;-78
2021/11/19 11:41:46;;;;;;;;;;;;;;;;;;4366772;32;20050;-78
2021/11/19 11:44:17;;;;;;;;;;;;;;;;;;4391117;32;19988;-77
2021/11/19 11:46:54;;;;;;;;;;;;;;;;;;4378268;32;19994;-79
2021/11/19 11:49:21;;;;;;;;;;;;;;;;;;4379273;32;19981;-79
2021/11/19 11:51:47;;;;;;;;;;;;;;;;;;4398908;32;19981;-79
2021/11/19 11:54:32;;;;;;;;;;;;;;;;;;4393882;32;19985;-80
2021/11/19 11:57:19;;;;;;;;;;;;;;;;;;4390533;32;20436;-78
2021/11/19 11:59:54;;;;;;;;;;;;;;;;;;4366129;32;20412;-78
2021/11/19 12:02:35;;;;;;;;;;;;;;;;;;4366667;32;20115;-78
2021/11/19 12:05:09;;;;;;;;;;;;;;;;;;4367836;32;20504;-75
2021/11/19 12:07:38;;;;;;;;;;;;;;;;;;4391375;32;19997;-76
2021/11/19 12:10:08;;;;;;;;;;;;;;;;;;4378443;32;19977;-76
2021/11/19 12:12:37;;;;;;;;;;;;;;;;;;4390800;32;19970;-75
2021/11/19 12:15:03;;;;;;;;;;;;;;;;;;4378631;32;20065;-80
2021/11/19 12:17:33;;;;;;;;;;;;;;;;;;4391440;32;20348;-76
2021/11/19 12:20:08;;;;;;;;;;;;;;;;;;4392288;32;19992;-76
2021/11/19 12:22:36;;;;;;;;;;;;;;;;;;4378304;32;19977;-76
2021/11/19 12:25:21;;;;;;;;;;;;;;;;;;4378160;32;19977;-77
2021/11/19 12:27:51;;;;;;;;;;;;;;;;;;4390513;32;19981;-76
2021/11/19 12:30:36;;;;;;;;;;;;;;;;;;4390228;32;19973;-76
2021/11/19 12:33:16;;;;;;;;;;;;;;;;;;4390552;32;19970;-75
2021/11/19 12:35:44;;;;;;;;;;;;;;;;;;4356541;32;20096;-71
2021/11/19 12:38:16;;;;;;;;;;;;;;;;;;4380768;32;20414;-71
2021/11/19 12:40:52;;;;;;;;;;;;;;;;;;4355272;32;20348;-72
2021/11/19 12:43:22;;;;;;;;;;;;;;;;;;4378821;32;20053;-73
2021/11/19 12:45:51;;;;;;;;;;;;;;;;;;4363533;32;20002;-72
2021/11/19 12:48:29;;;;;;;;;;;;;;;;;;4368496;32;19986;-68
2021/11/19 12:51:01;;;;;;;;;;;;;;;;;;4375545;32;20443;-73
2021/11/19 12:53:31;;;;;;;;;;;;;;;;;;4377643;32;20012;-74
2021/11/19 12:56:08;;;;;;;;;;;;;;;;;;4373627;32;20108;-78
2021/11/19 12:58:35;;;;;;;;;;;;;;;;;;4362542;32;19966;-72
2021/11/19 13:01:10;;;;;;;;;;;;;;;;;;4374718;32;20102;-75
2021/11/19 13:03:55;;;;;;;;;;;;;;;;;;4362019;32;19985;-73
2021/11/19 13:06:30;;;;;;;;;;;;;;;;;;4380265;32;19977;-74
2021/11/19 13:08:56;;;;;;;;;;;;;;;;;;4364444;32;20384;-72
2021/11/19 13:11:30;;;;;;;;;;;;;;;;;;4373509;32;20003;-72
2021/11/19 13:14:15;;;;;;;;;;;;;;;;;;4373722;32;20008;-71
2021/11/19 13:16:46;;;;;;;;;;;;;;;;;;4387080;32;20050;-73
2021/11/19 13:19:28;;;;;;;;;;;;;;;;;;4368953;32;19978;-80
2021/11/19 13:21:54;;;;;;;;;;;;;;;;;;4379163;32;19981;-76
2021/11/19 13:24:27;;;;;;;;;;;;;;;;;;4387696;32;19982;-78
2021/11/19 13:27:08;;;;;;;;;;;;;;;;;;4378058;32;19972;-76
2021/11/19 13:29:45;;;;;;;;;;;;;;;;;;4385546;32;19962;-76
2021/11/19 13:32:24;;;;;;;;;;;;;;;;;;4366374;32;19990;-69
2021/11/19 13:34:52;;;;;;;;;;;;;;;;;;4371384;32;19982;-71
2021/11/19 13:37:18;;;;;;;;;;;;;;;;;;4372716;32;20006;-71
2021/11/19 13:39:45;;;;;;;;;;;;;;;;;;4386675;32;19974;-71
2021/11/19 13:42:11;;;;;;;;;;;;;;;;;;4371444;32;20426;-72
2021/11/19 13:45:04;;;;;;;;;;;;;;;;;;4379309;32;20073;-72
2021/11/19 13:47:37;;;;;;;;;;;;;;;;;;4366692;32;19981;-72
2021/11/19 13:50:28;;;;;;;;;;;;;;;;;;4366691;32;19974;-76
2021/11/19 13:53:11;;;;;;;;;;;;;;;;;;4382603;32;20005;-71
2021/11/19 13:55:42;;;;;;;;;;;;;;;;;;4367166;32;19970;-75
2021/11/19 13:58:11;;;;;;;;;;;;;;;;;;4377049;32;19970;-78
2021/11/19 14:00:42;;;;;;;;;;;;;;;;;;4378546;32;20062;-76
2021/11/19 14:03:13;;;;;;;;;;;;;;;;;;4353865;32;19981;-73
2021/11/19 14:05:48;;;;;;;;;;;;;;;;;;4363847;32;19962;-72
2021/11/19 14:08:40;;;;;;;;;;;;;;;;;;4376553;32;19978;-75
2021/11/19 14:11:14;;;;;;;;;;;;;;;;;;4383636;32;19989;-81
2021/11/19 14:13:42;;;;;;;;;;;;;;;;;;4379878;32;20034;-74
2021/11/19 14:16:08;;;;;;;;;;;;;;;;;;4372199;32;19985;-77
2021/11/19 14:18:47;;;;;;;;;;;;;;;;;;4389489;32;20398;-75
2021/11/19 14:24:17;;;;;;;;;;;;;;;;;;4380860;32;19974;-73
2021/11/19 14:26:48;;;;;;;;;;;;;;;;;;4366697;32;20400;-74
2021/11/19 14:29:25;;;;;;;;;;;;;;;;;;4359596;32;20041;-73
2021/11/19 14:31:53;;;;;;;;;;;;;;;;;;4377357;32;19981;-72
2021/11/19 14:34:19;;;;;;;;;;;;;;;;;;4386611;32;20063;-74
2021/11/19 14:36:50;;;;;;;;;;;;;;;;;;4361158;32;20024;-73
2021/11/19 14:39:35;;;;;;;;;;;;;;;;;;4368854;32;20055;-75
2021/11/19 14:42:03;;;;;;;;;;;;;;;;;;4370811;32;19962;-77
2021/11/19 14:44:35;;;;;;;;;;;;;;;;;;4376513;32;19966;-76
2021/11/19 14:47:06;;;;;;;;;;;;;;;;;;4387274;32;20017;-72
2021/11/19 14:49:43;;;;;;;;;;;;;;;;;;4382154;32;19962;-75
2021/11/19 14:52:10;;;;;;;;;;;;;;;;;;4377051;32;20773;-73
2021/11/19 14:54:37;;;;;;;;;;;;;;;;;;4371652;32;19982;-77
2021/11/19 14:57:09;;;;;;;;;;;;;;;;;;4377888;32;19982;-73
2021/11/19 14:59:44;;;;;;;;;;;;;;;;;;4381183;32;20419;-72
2021/11/19 15:02:30;;;;;;;;;;;;;;;;;;4381960;32;20010;-73
2021/11/19 15:04:57;;;;;;;;;;;;;;;;;;4390310;32;19973;-74
2021/11/19 15:07:27;;;;;;;;;;;;;;;;;;4374168;32;20397;-69
2021/11/19 15:10:04;;;;;;;;;;;;;;;;;;4380212;32;20026;-72
2021/11/19 15:12:31;;;;;;;;;;;;;;;;;;4361661;32;20486;-75
2021/11/19 15:15:04;;;;;;;;;;;;;;;;;;4374128;32;20675;-71
2021/11/19 15:17:32;;;;;;;;;;;;;;;;;;4373562;32;19986;-73
2021/11/19 15:20:01;;;;;;;;;;;;;;;;;;4376083;32;19998;-75
2021/11/19 15:22:27;;;;;;;;;;;;;;;;;;4375491;32;19998;-74
2021/11/19 15:24:56;;;;;;;;;;;;;;;;;;4376880;32;19990;-76
2021/11/19 15:27:29;;;;;;;;;;;;;;;;;;4363535;32;19970;-73
2021/11/19 15:30:19;;;;;;;;;;;;;;;;;;4363603;32;19994;-75
2021/11/19 15:32:50;;;;;;;;;;;;;;;;;;4369095;32;20126;-73
2021/11/19 15:35:22;;;;;;;;;;;;;;;;;;4364279;32;20461;-75
2021/11/19 15:37:50;;;;;;;;;;;;;;;;;;4377763;32;19990;-74
2021/11/19 15:40:17;;;;;;;;;;;;;;;;;;4376676;32;19997;-74
2021/11/19 15:42:44;;;;;;;;;;;;;;;;;;4364199;32;19981;-75
2021/11/19 15:45:11;;;;;;;;;;;;;;;;;;4375993;32;20062;-76
2021/11/19 15:47:37;;;;;;;;;;;;;;;;;;4363279;32;20443;-76
2021/11/19 15:50:04;;;;;;;;;;;;;;;;;;4363295;32;20005;-76
2021/11/19 15:52:35;;;;;;;;;;;;;;;;;;4375765;32;20061;-76
2021/11/19 15:55:04;;;;;;;;;;;;;;;;;;4364137;32;20459;-76
2021/11/19 15:57:33;;;;;;;;;;;;;;;;;;4376450;32;19994;-75
2021/11/19 16:00:04;;;;;;;;;;;;;;;;;;4377236;32;20123;-76
2021/11/19 16:02:30;;;;;;;;;;;;;;;;;;4377258;32;20527;-76
2021/11/19 16:05:15;;;;;;;;;;;;;;;;;;4378124;32;20000;-76
2021/11/19 16:07:42;;;;;;;;;;;;;;;;;;4375734;32;19978;-76
2021/11/19 16:10:08;;;;;;;;;;;;;;;;;;4376117;32;19985;-76
2021/11/19 16:12:40;;;;;;;;;;;;;;;;;;4377265;32;19989;-76
2021/11/19 16:15:07;;;;;;;;;;;;;;;;;;4376963;32;19966;-76
2021/11/19 16:17:33;;;;;;;;;;;;;;;;;;4375334;32;20432;-77
2021/11/19 16:20:01;;;;;;;;;;;;;;;;;;4377086;32;19985;-76
2021/11/19 16:22:28;;;;;;;;;;;;;;;;;;4376146;32;20000;-76
2021/11/19 16:24:54;;;;;;;;;;;;;;;;;;4377064;32;19977;-76
2021/11/19 16:27:22;;;;;;;;;;;;;;;;;;4363332;32;20031;-77
2021/11/19 16:29:49;;;;;;;;;;;;;;;;;;4363929;32;20045;-77
2021/11/19 16:32:16;;;;;;;;;;;;;;;;;;4375561;32;20056;-77
2021/11/19 16:34:45;;;;;;;;;;;;;;;;;;4375765;32;20348;-76
2021/11/19 16:37:11;;;;;;;;;;;;;;;;;;4378469;32;20416;-76
2021/11/19 16:39:38;;;;;;;;;;;;;;;;;;4390541;32;19976;-77
2021/11/19 16:42:05;;;;;;;;;;;;;;;;;;4391548;32;19974;-74
2021/11/19 16:44:31;;;;;;;;;;;;;;;;;;4391374;32;20021;-77